Time;durP1;ratioP1;P1;durP2;ratioP2;P2;SDS_P1;SDS_P2;PMS_P1;PMS_P2;Temp;Humidity;BMP_temperature;BMP_pressure;BME280_temperature;BME280_humidity;BME280_pressure;Samples;Min_cycle;Max_cycle;Signal;HPM_P1;HPM_P2
2022/09/18 00:01:21;;;;;;;0.77;0.43;;;;;;;-140.72;100.00;52794.69;5033718;28;20048;-69
2022/09/18 00:03:47;;;;;;;3.72;0.55;;;;;;;-140.72;100.00;52804.81;5035746;28;20501;-69
2022/09/18 00:06:18;;;;;;;1.63;0.57;;;;;;;-140.72;100.00;52790.63;5037198;28;20355;-69
2022/09/18 00:08:44;;;;;;;5.15;0.82;;;;;;;-140.72;100.00;52790.63;5032460;28;20056;-70
2022/09/18 00:11:12;;;;;;;2.20;0.30;;;;;;;-140.72;100.00;52794.69;5040926;28;20021;-70
2022/09/18 00:13:39;;;;;;;5.50;0.77;;;;;;;-140.72;100.00;52808.88;5036198;28;20026;-69
2022/09/18 00:16:07;;;;;;;3.05;0.80;;;;;;;-140.72;100.00;52800.75;5041141;28;20303;-69
2022/09/18 00:18:32;;;;;;;4.18;0.50;;;;;;;-140.72;100.00;52794.69;5039875;28;20033;-72
2022/09/18 00:21:08;;;;;;;4.80;1.10;;;;;;;-140.72;100.00;52784.53;5039200;28;20033;-70
2022/09/18 00:23:35;;;;;;;2.17;0.40;;;;;;;-140.72;100.00;52772.34;5040523;28;20108;-71
2022/09/18 00:26:00;;;;;;;1.55;0.50;;;;;;;-140.72;100.00;52772.34;5030709;28;20029;-69
2022/09/18 00:28:27;;;;;;;4.78;0.80;;;;;;;-140.72;100.00;52788.59;5030913;28;20088;-70
2022/09/18 00:30:52;;;;;;;1.60;0.57;;;;;;;-140.72;100.00;52768.28;5034752;28;20036;-70
2022/09/18 00:33:18;;;;;;;4.28;0.52;;;;;;;-140.72;100.00;52810.91;5036444;28;20409;-70
2022/09/18 00:35:44;;;;;;;3.00;0.32;;;;;;;-140.72;100.00;52776.41;5041990;28;20031;-69
2022/09/18 00:38:10;;;;;;;2.08;0.52;;;;;;;-140.72;100.00;52812.94;5029475;28;20532;-71
2022/09/18 00:40:35;;;;;;;3.22;0.70;;;;;;;-140.72;100.00;52792.66;5041313;28;20108;-70
2022/09/18 00:43:16;;;;;;;0.28;0.28;;;;;;;-140.72;100.00;52743.94;5032371;28;20025;-69
2022/09/18 00:45:42;;;;;;;1.60;0.30;;;;;;;-140.72;100.00;52800.75;5029880;28;20040;-70
2022/09/18 00:48:07;;;;;;;0.10;0.10;;;;;;;-140.72;100.00;52780.47;5047145;28;20025;-71
2022/09/18 00:50:33;;;;;;;2.40;0.40;;;;;;;-140.72;100.00;52812.94;5031159;28;20025;-70
2022/09/18 00:53:02;;;;;;;1.65;0.30;;;;;;;-140.72;100.00;52808.88;5036193;28;20057;-69
2022/09/18 00:55:33;;;;;;;0.32;0.20;;;;;;;-140.72;100.00;52784.53;5023924;28;20088;-70
2022/09/18 00:58:01;;;;;;;0.75;0.75;;;;;;;-140.72;100.00;52788.59;5030206;28;20488;-70
2022/09/18 01:00:35;;;;;;;2.83;0.43;;;;;;;-140.72;100.00;52754.09;5041781;28;20028;-69
2022/09/18 01:03:00;;;;;;;1.75;0.57;;;;;;;-140.72;100.00;52790.63;5030634;28;20025;-69
2022/09/18 01:06:11;;;;;;;1.15;0.50;;;;;;;-140.72;100.00;52778.44;5029414;28;20057;-69
2022/09/18 01:08:49;;;;;;;3.75;0.57;;;;;;;-140.72;100.00;52774.38;5022849;28;20462;-70
2022/09/18 01:11:21;;;;;;;3.05;0.50;;;;;;;-140.72;100.00;52780.47;5024550;28;20393;-69
2022/09/18 01:14:12;;;;;;;0.80;0.43;;;;;;;-140.72;100.00;52780.47;5033728;28;20182;-71
2022/09/18 01:17:05;;;;;;;0.95;0.20;;;;;;;-140.72;100.00;52786.56;5030523;28;20036;-72
2022/09/18 01:19:42;;;;;;;0.43;0.15;;;;;;;-140.72;100.00;52770.31;5028535;28;20021;-70
2022/09/18 01:22:19;;;;;;;3.03;0.28;;;;;;;-140.72;100.00;52770.31;5029669;28;20458;-69
2022/09/18 01:25:22;;;;;;;2.78;0.50;;;;;;;-140.72;100.00;52792.66;5029394;28;20112;-69
2022/09/18 01:27:55;;;;;;;1.25;0.47;;;;;;;-140.72;100.00;52806.84;5029748;28;20112;-69
2022/09/18 01:30:20;;;;;;;0.95;0.22;;;;;;;-140.72;100.00;52812.94;5029136;28;20021;-70
2022/09/18 01:32:53;;;;;;;0.10;0.10;;;;;;;-140.72;100.00;52802.78;5026984;28;20053;-69
2022/09/18 01:35:31;;;;;;;2.38;0.40;;;;;;;-140.72;100.00;52847.44;5021748;28;20042;-71
2022/09/18 01:38:34;;;;;;;2.33;0.75;;;;;;;-140.72;100.00;52802.78;5029804;28;20041;-69
2022/09/18 01:41:06;;;;;;;3.13;0.60;;;;;;;-140.72;100.00;52792.66;5030737;28;20068;-69
2022/09/18 01:43:35;;;;;;;1.48;0.70;;;;;;;-140.72;100.00;52792.66;5029039;28;20034;-69
2022/09/18 01:46:05;;;;;;;0.98;0.32;;;;;;;-140.72;100.00;52804.81;5029607;28;20021;-71
2022/09/18 01:48:35;;;;;;;1.85;0.35;;;;;;;-140.72;100.00;52812.94;5028211;28;20037;-69
2022/09/18 01:51:08;;;;;;;0.10;0.10;;;;;;;-140.72;100.00;52788.59;5030882;28;20044;-69
2022/09/18 01:53:39;;;;;;;1.98;0.47;;;;;;;-140.72;100.00;52776.41;5029173;28;20036;-69
2022/09/18 01:56:15;;;;;;;0.52;0.30;;;;;;;-140.72;100.00;52808.88;5029483;28;20044;-70
2022/09/18 01:58:42;;;;;;;1.08;0.30;;;;;;;-140.72;100.00;52788.59;5042214;28;20029;-70
2022/09/18 02:01:12;;;;;;;0.68;0.30;;;;;;;-140.72;100.00;52784.53;5035322;28;20029;-68
2022/09/18 02:03:44;;;;;;;1.90;0.40;;;;;;;-140.72;100.00;52780.47;5037950;28;20037;-72
2022/09/18 02:06:18;;;;;;;4.47;0.55;;;;;;;-140.72;100.00;52758.16;5023861;28;20037;-70
2022/09/18 02:08:48;;;;;;;1.30;0.52;;;;;;;-140.72;100.00;52782.50;5030734;28;20049;-70
2022/09/18 02:11:16;;;;;;;0.17;0.15;;;;;;;-140.72;100.00;52784.53;5028557;28;20371;-69
2022/09/18 02:13:46;;;;;;;1.45;0.32;;;;;;;-140.72;100.00;52790.63;5029983;28;20399;-68
2022/09/18 02:16:18;;;;;;;10.15;1.08;;;;;;;-140.72;100.00;52786.56;5033699;28;20060;-68
2022/09/18 02:18:49;;;;;;;0.35;0.17;;;;;;;-140.72;100.00;52780.47;5030070;28;20080;-69
2022/09/18 02:21:20;;;;;;;0.43;0.20;;;;;;;-140.72;100.00;52780.47;5032066;28;20033;-71
2022/09/18 02:23:46;;;;;;;4.38;0.88;;;;;;;-140.72;100.00;52817.00;5029105;28;20112;-70
2022/09/18 02:26:13;;;;;;;0.60;0.43;;;;;;;-140.72;100.00;52806.84;5028064;28;20041;-68
2022/09/18 02:28:40;;;;;;;0.40;0.20;;;;;;;-140.72;100.00;52784.53;5029496;28;20120;-69
2022/09/18 02:31:06;;;;;;;0.75;0.25;;;;;;;-140.72;100.00;52817.00;5028144;28;20033;-68
2022/09/18 02:33:33;;;;;;;3.35;0.65;;;;;;;-140.72;100.00;52792.66;5027950;28;20033;-70
2022/09/18 02:36:38;;;;;;;1.38;0.40;;;;;;;-140.72;100.00;52802.78;5027855;28;20505;-71
2022/09/18 02:39:32;;;;;;;2.13;0.20;;;;;;;-140.72;100.00;52782.50;5028955;28;20196;-71
2022/09/18 02:42:30;;;;;;;2.30;0.20;;;;;;;-140.72;100.00;52764.25;5033148;28;20382;-69
2022/09/18 02:45:21;;;;;;;0.57;0.30;;;;;;;-140.72;100.00;52788.59;5020961;28;20117;-70
2022/09/18 02:47:58;;;;;;;6.68;0.90;;;;;;;-140.72;100.00;52794.69;5032354;28;20056;-69
2022/09/18 02:50:46;;;;;;;2.53;0.30;;;;;;;-140.72;100.00;52770.31;5019917;28;20112;-69
2022/09/18 02:53:24;;;;;;;0.25;0.10;;;;;;;-140.72;100.00;52784.53;5028765;28;20374;-71
2022/09/18 02:56:02;;;;;;;1.00;0.20;;;;;;;-140.72;100.00;52788.59;5032743;28;20080;-68
2022/09/18 02:58:56;;;;;;;2.42;0.20;;;;;;;-140.72;100.00;52766.25;5042511;28;20059;-69
2022/09/18 03:01:25;;;;;;;0.75;0.40;;;;;;;-140.72;100.00;52780.47;5038949;28;20038;-70
2022/09/18 03:03:50;;;;;;;0.47;0.30;;;;;;;-140.72;100.00;52788.59;5046226;28;20026;-69
2022/09/18 03:06:16;;;;;;;2.60;0.20;;;;;;;-140.72;100.00;52782.50;5031730;28;20380;-69
2022/09/18 03:08:41;;;;;;;0.10;0.10;;;;;;;-140.72;100.00;52796.72;5032777;28;20033;-69
2022/09/18 03:11:07;;;;;;;0.30;0.20;;;;;;;-140.72;100.00;52800.75;5032847;28;20045;-70
2022/09/18 03:13:33;;;;;;;1.15;0.30;;;;;;;-140.72;100.00;52796.72;5031890;28;20539;-69
2022/09/18 03:15:58;;;;;;;4.30;0.47;;;;;;;-140.72;100.00;52802.78;5032129;28;20061;-69
2022/09/18 03:18:24;;;;;;;2.90;0.35;;;;;;;-140.72;100.00;52804.81;5032436;28;20171;-70
2022/09/18 03:20:49;;;;;;;4.15;0.65;;;;;;;-140.72;100.00;52784.53;5034980;28;20033;-69
2022/09/18 03:23:15;;;;;;;1.92;0.28;;;;;;;-140.72;100.00;52758.16;5041737;28;20037;-69
2022/09/18 03:25:40;;;;;;;1.08;0.50;;;;;;;-140.72;100.00;52780.47;5044553;28;20111;-69
2022/09/18 03:28:05;;;;;;;4.88;0.45;;;;;;;-140.72;100.00;52792.66;5034386;28;20028;-69
2022/09/18 03:30:31;;;;;;;1.95;0.32;;;;;;;-140.72;100.00;52802.78;5034822;28;20025;-69
2022/09/18 03:32:56;;;;;;;3.80;0.52;;;;;;;-140.72;100.00;52790.63;5036621;28;20025;-69
2022/09/18 03:35:22;;;;;;;2.38;0.40;;;;;;;-140.72;100.00;52774.38;5032857;28;20035;-70
2022/09/18 03:37:47;;;;;;;0.25;0.20;;;;;;;-140.72;100.00;52845.41;5040697;28;20028;-71
2022/09/18 03:40:14;;;;;;;1.98;0.30;;;;;;;-140.72;100.00;52817.00;5041246;28;20075;-70
2022/09/18 03:42:43;;;;;;;2.08;0.47;;;;;;;-140.72;100.00;52792.66;5039951;28;20108;-69
2022/09/18 03:45:10;;;;;;;6.88;0.52;;;;;;;-140.72;100.00;52814.97;5033663;28;20033;-69
2022/09/18 03:47:35;;;;;;;0.70;0.40;;;;;;;-140.72;100.00;52802.78;5038651;28;20029;-72
2022/09/18 03:50:01;;;;;;;1.45;0.45;;;;;;;-140.72;100.00;52827.16;5032954;28;20079;-69
2022/09/18 03:52:26;;;;;;;1.55;0.57;;;;;;;-140.72;100.00;52817.00;5037342;28;20033;-71
2022/09/18 03:54:53;;;;;;;3.40;0.57;;;;;;;-140.72;100.00;52774.38;5033521;28;20104;-71
2022/09/18 03:57:19;;;;;;;3.38;0.50;;;;;;;-140.72;100.00;52817.00;5033162;28;20064;-72
2022/09/18 03:59:44;;;;;;;2.38;0.73;;;;;;;-140.72;100.00;52772.34;5039690;28;20044;-69
2022/09/18 04:02:09;;;;;;;1.08;0.40;;;;;;;-140.72;100.00;52786.56;5035363;28;20388;-69
2022/09/18 04:04:35;;;;;;;4.03;0.43;;;;;;;-140.72;100.00;52812.94;5030976;28;20071;-68
2022/09/18 04:07:00;;;;;;;1.50;0.50;;;;;;;-140.72;100.00;52796.72;5034786;28;20034;-68
2022/09/18 04:09:26;;;;;;;3.13;0.90;;;;;;;-140.72;100.00;52784.53;5032492;28;20045;-70
2022/09/18 04:11:51;;;;;;;1.75;0.43;;;;;;;-140.72;100.00;52786.56;5033548;28;20464;-70
2022/09/18 04:14:18;;;;;;;4.35;0.40;;;;;;;-140.72;100.00;52823.09;5033324;28;20363;-69
2022/09/18 04:16:43;;;;;;;5.60;0.90;;;;;;;-140.72;100.00;52821.06;5032804;28;20112;-71
2022/09/18 04:19:09;;;;;;;0.85;0.75;;;;;;;-140.72;100.00;52780.47;5032784;28;20597;-71
2022/09/18 04:21:34;;;;;;;4.03;0.85;;;;;;;-140.72;100.00;52739.88;5039101;28;20451;-69
2022/09/18 04:23:59;;;;;;;3.70;0.47;;;;;;;-140.72;100.00;52788.59;5034218;28;20026;-72
2022/09/18 04:26:25;;;;;;;0.85;0.65;;;;;;;-140.72;100.00;52804.81;5035347;28;20021;-69
2022/09/18 04:28:51;;;;;;;1.55;0.52;;;;;;;-140.72;100.00;52782.50;5032486;28;20032;-69
2022/09/18 04:31:17;;;;;;;0.93;0.52;;;;;;;-140.72;100.00;52766.25;5033012;28;20029;-71
2022/09/18 04:33:42;;;;;;;3.45;0.28;;;;;;;-140.72;100.00;52792.66;5033272;28;20597;-69
2022/09/18 04:36:08;;;;;;;0.82;0.30;;;;;;;-140.72;100.00;52796.72;5029634;28;20030;-68
2022/09/18 04:38:33;;;;;;;3.22;0.50;;;;;;;-140.72;100.00;52764.25;5034243;28;20087;-70
2022/09/18 04:41:00;;;;;;;0.50;0.22;;;;;;;-140.72;100.00;52784.53;5036018;28;20028;-69
2022/09/18 04:43:26;;;;;;;0.82;0.10;;;;;;;-140.72;100.00;52821.06;5036821;28;20108;-70
2022/09/18 04:45:53;;;;;;;5.88;0.77;;;;;;;-140.72;100.00;52808.88;5037334;28;20056;-68
2022/09/18 04:48:19;;;;;;;4.68;0.50;;;;;;;-140.72;100.00;52817.00;5036744;28;20029;-70
2022/09/18 04:50:45;;;;;;;1.98;0.95;;;;;;;-140.72;100.00;52810.91;5038520;28;20079;-71
2022/09/18 04:53:11;;;;;;;1.38;0.65;;;;;;;-140.72;100.00;52802.78;5032721;28;20033;-69
2022/09/18 04:55:36;;;;;;;0.68;0.17;;;;;;;-140.72;100.00;52798.72;5033124;28;20505;-69
2022/09/18 04:58:02;;;;;;;1.17;0.35;;;;;;;-140.72;100.00;52794.69;5033177;28;20466;-69
2022/09/18 05:00:27;;;;;;;0.30;0.20;;;;;;;-140.72;100.00;52804.81;5029440;28;20031;-71
2022/09/18 05:02:53;;;;;;;0.25;0.15;;;;;;;-140.72;100.00;52800.75;5037353;28;20025;-71
2022/09/18 05:05:19;;;;;;;0.35;0.25;;;;;;;-140.72;100.00;52786.56;5035768;28;20025;-70
2022/09/18 05:07:44;;;;;;;3.75;0.38;;;;;;;-140.72;100.00;52808.88;5030796;28;20112;-71
2022/09/18 05:10:09;;;;;;;2.10;0.32;;;;;;;-140.72;100.00;52812.94;5029328;28;20041;-70
2022/09/18 05:12:38;;;;;;;0.20;0.13;;;;;;;-140.72;100.00;52800.75;5029872;28;20059;-71
2022/09/18 05:15:04;;;;;;;0.43;0.30;;;;;;;-140.72;100.00;52812.94;5035623;28;20549;-71
2022/09/18 05:17:31;;;;;;;0.30;0.20;;;;;;;-140.72;100.00;52752.06;5035136;28;20121;-69
2022/09/18 05:19:56;;;;;;;0.20;0.10;;;;;;;-140.72;100.00;52808.88;5036450;28;20385;-66
2022/09/18 05:22:22;;;;;;;1.20;0.43;;;;;;;-140.72;100.00;52792.66;5028934;28;20025;-67
2022/09/18 05:24:48;;;;;;;0.20;0.15;;;;;;;-140.72;100.00;52810.91;5032150;28;20030;-67
2022/09/18 05:27:13;;;;;;;4.75;0.28;;;;;;;-140.72;100.00;52821.06;5026048;28;20041;-69
2022/09/18 05:29:38;;;;;;;0.10;0.10;;;;;;;-140.72;100.00;52808.88;5035007;28;20022;-68
2022/09/18 05:32:04;;;;;;;2.40;0.50;;;;;;;-140.72;100.00;52778.44;5033572;28;20022;-67
2022/09/18 05:34:29;;;;;;;0.55;0.22;;;;;;;-140.72;100.00;52814.97;5029095;28;20036;-67
2022/09/18 05:36:55;;;;;;;2.38;0.40;;;;;;;-140.72;100.00;52817.00;5027559;28;20029;-69
2022/09/18 05:39:20;;;;;;;3.33;0.45;;;;;;;-140.72;100.00;52831.19;5031110;28;20079;-67
2022/09/18 05:41:49;;;;;;;0.68;0.20;;;;;;;-140.72;100.00;52819.03;5029647;28;20546;-67
2022/09/18 05:44:14;;;;;;;1.70;0.52;;;;;;;-140.72;100.00;52798.72;5029467;28;20025;-69
2022/09/18 05:46:40;;;;;;;0.10;0.05;;;;;;;-140.72;100.00;52752.06;5029364;28;20040;-68
2022/09/18 05:49:05;;;;;;;0.90;0.20;;;;;;;-140.72;100.00;52743.94;5029274;28;20310;-66
2022/09/18 05:51:31;;;;;;;2.10;0.40;;;;;;;-140.72;100.00;52784.53;5028972;28;20469;-69
2022/09/18 05:53:56;;;;;;;2.65;0.50;;;;;;;-140.72;100.00;52766.25;5029000;28;20032;-68
2022/09/18 05:56:21;;;;;;;0.17;0.17;;;;;;;-140.72;100.00;52752.06;5029122;28;20026;-67
2022/09/18 05:58:47;;;;;;;0.57;0.20;;;;;;;-140.72;100.00;52792.66;5030121;28;20424;-67
2022/09/18 06:01:13;;;;;;;2.40;0.68;;;;;;;-140.72;100.00;52808.88;5027987;28;20087;-67
2022/09/18 06:03:38;;;;;;;0.45;0.30;;;;;;;-140.72;100.00;52812.94;5029966;28;20065;-69
2022/09/18 06:06:04;;;;;;;0.35;0.20;;;;;;;-140.72;100.00;52762.22;5029694;28;20520;-68
2022/09/18 06:08:29;;;;;;;2.85;0.20;;;;;;;-140.72;100.00;52810.91;5028758;28;20477;-68
2022/09/18 06:10:59;;;;;;;0.60;0.30;;;;;;;-140.72;100.00;52772.34;5029090;28;20115;-68
2022/09/18 06:13:25;;;;;;;0.85;0.30;;;;;;;-140.72;100.00;52788.59;5033192;28;20384;-68
2022/09/18 06:15:51;;;;;;;1.80;0.45;;;;;;;-140.72;100.00;52794.69;5036043;28;20076;-68
2022/09/18 06:18:17;;;;;;;1.05;0.40;;;;;;;-140.72;100.00;52796.72;5028735;28;20018;-67
2022/09/18 06:20:49;;;;;;;1.35;0.22;;;;;;;-140.72;100.00;52737.84;5033889;28;20045;-67
2022/09/18 06:23:15;;;;;;;2.28;0.43;;;;;;;-140.72;100.00;52780.47;5036909;28;20032;-68
2022/09/18 06:25:40;;;;;;;1.75;0.10;;;;;;;-140.72;100.00;52847.44;5051009;28;20388;-66
2022/09/18 06:28:06;;;;;;;1.75;0.30;;;;;;;-140.72;100.00;52788.59;5033148;28;20013;-68
2022/09/18 06:30:34;;;;;;;1.80;0.30;;;;;;;-140.72;100.00;52806.84;5032687;28;20060;-68
2022/09/18 06:33:08;;;;;;;1.10;0.28;;;;;;;-140.72;100.00;52800.75;5048874;28;20025;-69
2022/09/18 06:35:34;;;;;;;0.40;0.20;;;;;;;-140.72;100.00;52782.50;5038066;28;20179;-70
2022/09/18 06:38:03;;;;;;;0.73;0.43;;;;;;;-140.72;100.00;52784.53;5033018;28;20093;-67
2022/09/18 06:40:30;;;;;;;3.22;0.57;;;;;;;-140.72;100.00;52794.69;5032579;28;20044;-67
2022/09/18 06:42:57;;;;;;;0.90;0.55;;;;;;;-140.72;100.00;52764.25;5033031;28;20062;-67
2022/09/18 06:45:23;;;;;;;0.35;0.20;;;;;;;-140.72;100.00;52784.53;5032316;28;20474;-67
2022/09/18 06:47:53;;;;;;;1.23;0.50;;;;;;;-140.72;100.00;52829.19;5031902;28;20495;-66
2022/09/18 06:50:20;;;;;;;4.00;0.32;;;;;;;-140.72;100.00;52794.69;5032377;28;20109;-66
2022/09/18 06:52:46;;;;;;;2.10;0.40;;;;;;;-140.72;100.00;52784.53;5032881;28;20041;-67
2022/09/18 06:55:12;;;;;;;5.05;0.45;;;;;;;-140.72;100.00;52780.47;5033014;28;20036;-67
2022/09/18 06:57:37;;;;;;;2.35;0.60;;;;;;;-140.72;100.00;52760.19;5031881;28;20029;-67
2022/09/18 07:00:03;;;;;;;6.97;1.27;;;;;;;-140.72;100.00;52750.03;5032644;28;20025;-68
2022/09/18 07:02:28;;;;;;;0.20;0.17;;;;;;;-140.72;100.00;52782.50;5041097;28;20079;-67
2022/09/18 07:04:54;;;;;;;5.13;1.25;;;;;;;-140.72;100.00;52758.16;5037912;28;20023;-67
2022/09/18 07:07:19;;;;;;;2.25;0.68;;;;;;;-140.72;100.00;52780.47;5041772;28;20323;-67
2022/09/18 07:09:44;;;;;;;1.02;0.40;;;;;;;-140.72;100.00;52735.81;5036868;28;20139;-69
2022/09/18 07:12:10;;;;;;;1.30;0.57;;;;;;;-140.72;100.00;52764.25;5037226;28;20044;-66
2022/09/18 07:14:35;;;;;;;1.65;0.45;;;;;;;-140.72;100.00;52752.06;5042053;28;20061;-66
2022/09/18 07:17:00;;;;;;;3.78;0.40;;;;;;;-140.72;100.00;52770.31;5032495;28;20075;-69
2022/09/18 07:19:26;;;;;;;0.10;0.10;;;;;;;-140.72;100.00;52752.06;5038168;28;20032;-70
2022/09/18 07:21:52;;;;;;;3.03;0.50;;;;;;;-140.72;100.00;52748.00;5039166;28;20023;-67
2022/09/18 07:24:17;;;;;;;0.47;0.20;;;;;;;-140.72;100.00;52764.25;5031593;28;20078;-67
2022/09/18 07:26:42;;;;;;;1.30;0.47;;;;;;;-140.72;100.00;52768.28;5031088;28;20021;-67
2022/09/18 07:29:08;;;;;;;0.77;0.10;;;;;;;-140.72;100.00;52719.59;5031514;28;20030;-68
2022/09/18 07:31:34;;;;;;;2.25;0.40;;;;;;;-140.72;100.00;52737.84;5037576;28;20033;-67
2022/09/18 07:34:00;;;;;;;1.15;0.30;;;;;;;-140.72;100.00;52772.34;5032042;28;20132;-67
2022/09/18 07:36:26;;;;;;;3.45;0.70;;;;;;;-140.72;100.00;52752.06;5037085;28;20025;-66
2022/09/18 07:38:52;;;;;;;2.65;0.50;;;;;;;-140.72;100.00;52733.78;5031618;28;20031;-67
2022/09/18 07:41:18;;;;;;;1.80;0.30;;;;;;;-140.72;100.00;52725.69;5033687;28;20037;-67
2022/09/18 07:43:43;;;;;;;1.13;0.32;;;;;;;-140.72;100.00;52723.66;5036853;28;20036;-68
2022/09/18 07:46:12;;;;;;;1.80;0.77;;;;;;;-140.72;100.00;52752.06;5032929;28;20025;-69
2022/09/18 07:48:37;;;;;;;2.53;0.35;;;;;;;-140.72;100.00;52768.28;5031554;28;20033;-67
2022/09/18 07:51:03;;;;;;;2.83;0.40;;;;;;;-140.72;100.00;52760.19;5034351;28;20026;-67
2022/09/18 07:53:29;;;;;;;0.52;0.30;;;;;;;-140.72;100.00;52802.78;5031663;28;20110;-67
2022/09/18 07:55:56;;;;;;;1.00;0.30;;;;;;;-140.72;100.00;52774.38;5036305;28;20032;-68
2022/09/18 07:58:22;;;;;;;3.03;0.30;;;;;;;-140.72;100.00;52758.16;5030186;28;20049;-69
2022/09/18 08:00:48;;;;;;;2.97;0.40;;;;;;;-140.72;100.00;52782.50;5030317;28;20049;-70
2022/09/18 08:03:14;;;;;;;0.47;0.20;;;;;;;-140.72;100.00;52792.66;5029538;28;20041;-67
2022/09/18 08:05:40;;;;;;;3.22;0.20;;;;;;;-140.72;100.00;52758.16;5030757;28;20044;-66
2022/09/18 08:08:11;;;;;;;1.40;0.55;;;;;;;-140.72;100.00;52800.75;5030136;28;20421;-65
2022/09/18 08:10:38;;;;;;;1.27;0.28;;;;;;;-140.72;100.00;52758.16;5031192;28;20450;-66
2022/09/18 08:13:05;;;;;;;4.55;0.82;;;;;;;-140.72;100.00;52788.59;5032262;28;20029;-67
2022/09/18 08:15:31;;;;;;;0.50;0.30;;;;;;;-140.72;100.00;52829.19;5030157;28;20060;-66
2022/09/18 08:17:56;;;;;;;1.15;0.30;;;;;;;-140.72;100.00;52794.69;5030167;28;20029;-69
2022/09/18 08:20:22;;;;;;;0.68;0.30;;;;;;;-140.72;100.00;52780.47;5023498;28;20440;-67
2022/09/18 08:22:48;;;;;;;1.88;0.43;;;;;;;-140.72;100.00;52794.69;5033379;28;20074;-68
2022/09/18 08:25:14;;;;;;;3.25;1.00;;;;;;;-140.72;100.00;52804.81;5036539;28;20041;-69
2022/09/18 08:27:40;;;;;;;6.88;0.40;;;;;;;-140.72;100.00;52741.91;5030794;28;20496;-68
2022/09/18 08:30:08;;;;;;;1.15;0.40;;;;;;;-140.72;100.00;52800.75;5030065;28;20044;-68
2022/09/18 08:32:35;;;;;;;2.97;0.32;;;;;;;-140.72;100.00;52792.66;5030079;28;20416;-71
2022/09/18 08:35:01;;;;;;;1.27;0.50;;;;;;;-140.72;100.00;52760.19;5030174;28;20017;-68
2022/09/18 08:37:28;;;;;;;1.30;0.25;;;;;;;-140.72;100.00;52760.19;5035222;28;20044;-66
2022/09/18 08:39:54;;;;;;;2.03;0.98;;;;;;;-140.72;100.00;52778.44;5038243;28;20464;-69
2022/09/18 08:42:37;;;;;;;3.95;0.75;;;;;;;-140.72;100.00;52741.91;5036539;28;20136;-68
2022/09/18 08:45:14;;;;;;;3.38;0.32;;;;;;;-140.72;100.00;52766.25;5030577;28;20032;-68
2022/09/18 08:47:47;;;;;;;1.30;0.40;;;;;;;-140.72;100.00;52760.19;5030348;28;20470;-67
2022/09/18 08:50:25;;;;;;;0.43;0.20;;;;;;;-140.72;100.00;52731.75;5029950;28;20104;-68
2022/09/18 08:53:18;;;;;;;1.65;0.40;;;;;;;-140.72;100.00;52776.41;5029514;28;20136;-68
2022/09/18 08:55:47;;;;;;;0.43;0.40;;;;;;;-140.72;100.00;52723.66;5025949;28;20033;-71
2022/09/18 08:58:18;;;;;;;4.95;0.63;;;;;;;-140.72;100.00;52770.31;5028782;28;20390;-66
2022/09/18 09:00:49;;;;;;;3.88;0.50;;;;;;;-140.72;100.00;52683.06;5030195;28;20449;-70
2022/09/18 09:03:24;;;;;;;0.82;0.40;;;;;;;-140.72;100.00;52766.25;5028711;28;20030;-69
2022/09/18 09:05:55;;;;;;;0.93;0.50;;;;;;;-140.72;100.00;52756.13;5030593;28;20033;-67
2022/09/18 09:08:30;;;;;;;1.08;0.38;;;;;;;-140.72;100.00;52737.84;5029673;28;20104;-71
2022/09/18 09:11:04;;;;;;;2.25;0.20;;;;;;;-140.72;100.00;52735.81;5030164;28;20053;-72
2022/09/18 09:13:36;;;;;;;1.02;0.28;;;;;;;-140.72;100.00;52727.72;5036524;28;20044;-71
2022/09/18 09:16:05;;;;;;;1.10;0.20;;;;;;;-140.72;100.00;52705.38;5029178;28;20033;-70
2022/09/18 09:18:39;;;;;;;2.15;0.30;;;;;;;-140.72;100.00;52695.25;5029681;28;20162;-70
2022/09/18 09:21:29;;;;;;;1.92;0.35;;;;;;;-140.72;100.00;52733.78;5037177;28;20484;-71
2022/09/18 09:24:20;;;;;;;0.80;0.55;;;;;;;-140.72;100.00;52666.84;5026317;28;20500;-70
2022/09/18 09:26:48;;;;;;;1.50;0.50;;;;;;;-140.72;100.00;52715.53;5029607;28;20116;-70
2022/09/18 09:29:28;;;;;;;2.60;0.15;;;;;;;-140.72;100.00;52709.44;5025378;28;20026;-70
2022/09/18 09:32:03;;;;;;;1.25;0.20;;;;;;;-140.72;100.00;52721.63;5028956;28;20029;-71
2022/09/18 09:34:28;;;;;;;3.80;0.50;;;;;;;-140.72;100.00;52723.66;5034969;28;20040;-71
2022/09/18 09:36:57;;;;;;;1.77;0.20;;;;;;;-140.72;100.00;52713.50;5029051;28;20053;-70
2022/09/18 09:39:33;;;;;;;0.35;0.20;;;;;;;-140.72;100.00;52695.25;5028387;28;20040;-67
2022/09/18 09:42:22;;;;;;;0.40;0.20;;;;;;;-140.72;100.00;52697.28;5028273;28;20037;-70
2022/09/18 09:44:52;;;;;;;2.90;0.47;;;;;;;-140.72;100.00;52689.16;5034213;28;20057;-70
2022/09/18 09:47:32;;;;;;;0.75;0.15;;;;;;;-140.72;100.00;52748.00;5031959;28;20025;-72
2022/09/18 09:50:19;;;;;;;1.77;0.20;;;;;;;-140.72;100.00;52731.75;5036958;28;20032;-70
2022/09/18 09:52:46;;;;;;;0.10;0.10;;;;;;;-140.72;100.00;52727.72;5033711;28;20394;-70
2022/09/18 09:55:23;;;;;;;0.30;0.17;;;;;;;-140.72;100.00;52731.75;5035424;28;20044;-69
2022/09/18 09:58:10;;;;;;;0.43;0.20;;;;;;;-140.72;100.00;52697.28;5031035;28;20033;-73
2022/09/18 10:00:45;;;;;;;3.13;0.17;;;;;;;-140.72;100.00;52727.72;5027678;28;20401;-69
2022/09/18 10:03:32;;;;;;;0.20;0.10;;;;;;;-140.72;100.00;52739.88;5027952;28;20034;-70
2022/09/18 10:06:26;;;;;;;0.98;0.30;;;;;;;-140.72;100.00;52695.25;5028809;28;20041;-69
2022/09/18 10:08:58;;;;;;;0.80;0.17;;;;;;;-140.72;100.00;52727.72;5025623;28;20033;-71
2022/09/18 10:11:24;;;;;;;0.45;0.15;;;;;;;-140.72;100.00;52739.88;5025103;28;20115;-68
2022/09/18 10:14:04;;;;;;;0.40;0.10;;;;;;;-140.72;100.00;52711.47;5027142;28;20030;-67
2022/09/18 10:16:37;;;;;;;4.78;0.80;;;;;;;-140.72;100.00;52748.00;5023967;28;20037;-67
2022/09/18 10:19:03;;;;;;;4.07;0.65;;;;;;;-140.72;100.00;52745.97;5032571;28;20392;-68
2022/09/18 10:21:34;;;;;;;0.95;0.20;;;;;;;-140.72;100.00;52729.75;5027571;28;20037;-66
2022/09/18 10:24:24;;;;;;;2.28;0.20;;;;;;;-140.72;100.00;52752.06;5029461;28;20060;-68
2022/09/18 10:26:58;;;;;;;0.65;0.20;;;;;;;-140.72;100.00;52723.66;5033938;28;20035;-69
2022/09/18 10:29:24;;;;;;;0.57;0.20;;;;;;;-140.72;100.00;52717.56;5027730;28;20044;-69
2022/09/18 10:31:51;;;;;;;1.83;0.20;;;;;;;-140.72;100.00;52715.53;5028519;28;20417;-68
2022/09/18 10:34:35;;;;;;;3.53;0.47;;;;;;;-140.72;100.00;52695.25;5033667;28;20033;-69
2022/09/18 10:37:01;;;;;;;2.40;0.45;;;;;;;-140.72;100.00;52739.88;5030116;28;20369;-68
2022/09/18 10:39:32;;;;;;;1.00;0.32;;;;;;;-140.72;100.00;52754.09;5028072;28;20044;-69
2022/09/18 10:41:59;;;;;;;1.55;0.30;;;;;;;-140.72;100.00;52715.53;5022622;28;20030;-67
2022/09/18 10:44:56;;;;;;;0.20;0.10;;;;;;;-140.72;100.00;52748.00;5027696;28;20112;-68
2022/09/18 10:47:31;;;;;;;0.73;0.20;;;;;;;-140.72;100.00;52723.66;5028242;28;20280;-70
2022/09/18 10:49:58;;;;;;;2.67;0.65;;;;;;;-140.72;100.00;52748.00;5028202;28;20025;-71
2022/09/18 10:52:34;;;;;;;0.25;0.25;;;;;;;-140.72;100.00;52735.81;5028109;28;20067;-69
2022/09/18 10:55:06;;;;;;;0.93;0.32;;;;;;;-140.72;100.00;52739.88;5029095;28;20021;-71
2022/09/18 10:57:45;;;;;;;2.05;0.40;;;;;;;-140.72;100.00;52731.75;5027649;28;20038;-71
2022/09/18 11:00:10;;;;;;;7.30;0.37;;;;;;;-140.72;100.00;52748.00;5025756;28;20393;-71
2022/09/18 11:02:45;;;;;;;4.07;0.75;;;;;;;-140.72;100.00;52750.03;5035150;28;20025;-71
2022/09/18 11:05:21;;;;;;;3.38;0.38;;;;;;;-140.72;100.00;52737.84;5029985;28;20041;-70
2022/09/18 11:07:52;;;;;;;1.40;0.47;;;;;;;-140.72;100.00;52772.34;5031983;28;20116;-70
2022/09/18 11:10:23;;;;;;;2.92;0.52;;;;;;;-140.72;100.00;52776.41;5031721;28;20048;-71
2022/09/18 11:12:55;;;;;;;0.73;0.20;;;;;;;-140.72;100.00;52776.41;5032000;28;20084;-73
2022/09/18 11:15:24;;;;;;;4.78;0.30;;;;;;;-140.72;100.00;52739.88;5033451;28;20044;-72
2022/09/18 11:17:52;;;;;;;1.30;0.45;;;;;;;-140.72;100.00;52727.72;5030843;28;20033;-72
2022/09/18 11:20:20;;;;;;;3.42;0.50;;;;;;;-140.72;100.00;52772.34;5031591;28;20029;-73
2022/09/18 11:22:46;;;;;;;2.50;0.35;;;;;;;-140.72;100.00;52750.03;5031890;28;20484;-70